Statewide Weather Sensors

Route Weather Station Name Milepost Date / Time Surface Status Surface Temp Precip Intensity Wind Avg Wind Gust Dir Dewpoint Humidity Air Temp Visibility
I 25 Wyo Hill 3.52 Jul 24, 2021 01:34 pm     None None 14 mph 19 mph S 46.4°F 31% 78.8°F > 1/2 mi
I 25 Whitaker 28.1 Jul 24, 2021 01:34 pm Dry 116.6°F None None 16 mph 24 mph S 42.8°F 24% 82.4°F > 1/2 mi
I 25 Bear Creek 46.77 Jul 24, 2021 01:34 pm Dry 122.7°F None None 11 mph 16 mph E 37.4°F 19% 84.2°F > 1/2 mi
I 25 Bordeaux 70.8 Jul 24, 2021 01:34 pm Dry 124.9°F None   14 mph 19 mph SE 42.8°F 20% 87.8°F  
I 25 Coleman 98.7 Jul 24, 2021 01:34 pm Dry 118.8°F None None 11 mph 21 mph S 48.2°F 25% 86.0°F > 1/2 mi
I 25 Platte/Converse County Line 119.9 Jul 24, 2021 01:34 pm Dry 112.8°F None None 20 mph 20 mph SE 62.6°F 18% 91.4°F > 1/2 mi
I 25 Deer Creek 164.2 Jul 24, 2021 01:34 pm Dry 123.8°F None None 4 mph 11 mph E 46.4°F 22% 87.8°F > 1/2 mi
I 25 Hat Six 181.67 Jul 24, 2021 01:34 pm Dry 109.8°F None   6 mph 16 mph SE 48.2°F 25% 87.8°F  
I 25 F Street Hill 189.51 Jul 24, 2021 01:34 pm Dry 104.7°F None None 6 mph 12 mph NE 48.2°F 26% 86.0°F > 1/2 mi
I 25 Twenty Mile Hill 207.2 Jul 24, 2021 01:34 pm     None None 4 mph 14 mph N 39.2°F 19% 84.2°F > 1/2 mi
I 25 Smokey Gap 228.58 Jul 24, 2021 01:34 pm Dry 113.7°F None None 5 mph 14 mph NE 37.4°F 18% 86.0°F > 1/2 mi
I 25 Tisdale 238.87 Jul 24, 2021 01:35 pm Dry 111.6°F None None 6 mph 14 mph NE 37.4°F 18% 86.0°F > 1/2 mi
I 25 I-25 Divide 267.3 Jul 24, 2021 01:34 pm N/A   None None 8 mph 12 mph N 35.6°F 17% 84.2°F > 1/2 mi
I 80 Evanston POE .06 Jul 24, 2021 01:34 pm Dry 95.2°F None   4 mph 11 mph E 24.8°F 12% 82.4°F > 1/2 mi
I 80 Evanston 4.2 Jul 24, 2021 01:34 pm Dry 115.7°F None None 7 mph 13 mph NW 24.8°F 12% 84.2°F > 1/2 mi
I 80 Bear River Drive 6.94 Jul 24, 2021 01:34 pm Dry 96.6°F None   8 mph 12 mph W 30.2°F 14% 84.2°F > 1/2 mi
I 80 Painter 10.16 Jul 24, 2021 01:34 pm Dry 110.5°F None None 11 mph 20 mph W 8.6°F 5% 84.2°F > 1/2 mi
I 80 First Divide 13.86 Jul 24, 2021 01:34 pm Dry 120.2°F None None 16 mph 19 mph W 8.6°F 6% 80.6°F > 1/2 mi
I 80 US 189 Interchange 17.66 Jul 24, 2021 01:34 pm Dry 111.4°F None None 4 mph 12 mph SW 23.0°F 10% 84.2°F > 1/2 mi
I 80 Coal Road 20.95 Jul 24, 2021 01:34 pm Dry 120.7°F None None 6 mph 11 mph NE 26.6°F 13% 82.4°F > 1/2 mi
I 80 Leroy 23.35 Jul 24, 2021 01:34 pm Dry 115.9°F None None 10 mph 15 mph N 28.4°F 13% 84.2°F > 1/2 mi
I 80 French 27.6 Jul 24, 2021 01:34 pm Dry 112.6°F None None 4 mph 10 mph W 23.0°F 11% 80.6°F > 1/2 mi
I 80 Church Butte 52.65 Jul 24, 2021 01:34 pm Dry 124.7°F None None 7 mph 12 mph S 21.2°F 11% 82.4°F > 1/2 mi
I 80 Peru Hill 82.31 Jul 24, 2021 01:34 pm Dry 124.0°F None None 6 mph 15 mph SW 26.6°F 12% 84.2°F > 1/2 mi
I 80 Green River Tunnel 90.5 Jul 24, 2021 01:34 pm Dry 118.4°F None None 3 mph 10 mph E 30.2°F 13% 87.8°F > 1/2 mi
I 80 Rock Springs West 97.9 Jul 24, 2021 01:34 pm N/A   None None 6 mph 10 mph SW 26.6°F 11% 87.8°F > 1/2 mi
I 80 Baxter Road 111.5 Jul 24, 2021 01:34 pm     None None 8 mph 10 mph SE 28.4°F 12% 86.0°F > 1/2 mi
I 80 Mile Marker 124.5 124.5 Jul 24, 2021 01:34 pm Dry 130.1°F None None 5 mph 11 mph W 30.2°F 13% 86.0°F > 1/2 mi
I 80 Point of Rocks 129.8 Jul 24, 2021 01:34 pm Dry 126.0°F None None 6 mph 16 mph S 32.0°F 14% 86.0°F > 1/2 mi
I 80 Bitter Creek 141.83 Jul 24, 2021 01:34 pm Dry 118.0°F None None 7 mph 12 mph NW 33.8°F 16% 82.4°F > 1/2 mi
I 80 Tipton 156.72 Jul 24, 2021 01:34 pm Dry 115.9°F None None 6 mph 10 mph E 33.8°F 17% 84.2°F > 1/2 mi
I 80 Continental Divide 184.3 Jul 24, 2021 01:34 pm     None None 7 mph 12 mph W 39.2°F 22% 80.6°F > 1/2 mi
I 80 Sinclair 221.7 Jul 24, 2021 01:34 pm N/A   None None 4 mph 11 mph E 32.0°F 15% 84.2°F > 1/2 mi
I 80 Walcott Junction 234.66 Jul 24, 2021 01:34 pm Dry 126.1°F None None 6 mph 12 mph E 33.8°F 16% 84.2°F > 1/2 mi
I 80 Dana Ridge 244.8 Jul 24, 2021 01:34 pm Dry 99.9°F None None 5 mph 10 mph NE 33.8°F 20% 78.8°F > 1/2 mi
I 80 Mile Marker 249.1 249.1 Jul 24, 2021 01:34 pm N/A   None None 17 mph 24 mph SE 33.8°F 19% 78.8°F > 1/2 mi
I 80 Halleck Ridge 252.16 Jul 24, 2021 01:34 pm N/A   None   18 mph 30 mph E 33.8°F 20% 78.8°F  
I 80 Elk Mountain 256.17 Jul 24, 2021 01:34 pm Wet 104.9°F None None 15 mph 25 mph NE 33.8°F 18% 80.6°F > 1/2 mi
I 80 County Road 402 262 Jul 24, 2021 01:34 pm Dry 113.2°F None None 15 mph 29 mph NE 35.6°F 20% 78.8°F > 1/2 mi
I 80 Wagonhound 266.58 Jul 24, 2021 01:34 pm Dry 111.9°F None None 14 mph 21 mph E 35.6°F 22% 78.8°F > 1/2 mi
I 80 Foote Creek 269.5 Jul 24, 2021 01:34 pm Dry 112.3°F None   17 mph 21 mph NE 39.2°F 25% 77.0°F  
I 80 Arlington 271.8 Jul 24, 2021 01:34 pm N/A   None None 14 mph 24 mph SE 39.2°F 24% 77.0°F > 1/2 mi
I 80 Arlington East 273.85 Jul 24, 2021 01:34 pm Dry 114.6°F None None 16 mph 25 mph E 35.6°F 22% 77.0°F > 1/2 mi
I 80 Cooper Cove 279.36 Jul 24, 2021 01:34 pm Dry 97.2°F None None 14 mph 28 mph NE 39.2°F 25% 77.0°F > 1/2 mi
I 80 Strouss Hill 283.75 Jul 24, 2021 01:34 pm N/A   None None 16 mph 22 mph SE 35.6°F 23% 75.2°F > 1/2 mi
I 80 Quealy Dome 289.5 Jul 24, 2021 01:34 pm Dry -38.4°F None None 13 mph 21 mph SE 37.4°F 23% 77.0°F > 1/2 mi
I 80 Herrick Lane 297.66 Jul 24, 2021 01:34 pm Dry 103.5°F None None 12 mph 25 mph N   46%   > 1/2 mi
I 80 Summit East 325.8 Jul 24, 2021 01:34 pm Dry 106.5°F None None 16 mph 24 mph SE 37.4°F 30% 71.6°F > 1/2 mi
I 80 Vedauwoo 329.4 Jul 24, 2021 01:34 pm Dry 106.7°F None None 19 mph 25 mph S 39.2°F 30% 71.6°F > 1/2 mi
I 80 Lone Tree 333.32 Jul 24, 2021 01:34 pm Dry 104.0°F None None 14 mph 21 mph SE 39.2°F 30% 71.6°F > 1/2 mi
I 80 Buford East 336.1 Jul 24, 2021 01:34 pm Dry 106.9°F None None 13 mph 24 mph SE 37.4°F 29% 71.6°F > 1/2 mi
I 80 Remount Road 340.5 Jul 24, 2021 01:34 pm Dry 110.3°F None None 17 mph 23 mph N 44.6°F 32% 75.2°F > 1/2 mi
I 80 Otto 347.69 Jul 24, 2021 01:34 pm Dry 97.3°F None None 14 mph 21 mph S 42.8°F 31% 75.2°F > 1/2 mi
I 80 MP 353 353 Jul 24, 2021 01:34 pm Dry 107.6°F None None 10 mph 21 mph E 44.6°F 30% 77.0°F > 1/2 mi
I 80 Cheyenne East 373 Jul 24, 2021 01:34 pm Wet 89.8°F None None 11 mph 21 mph SE 41.0°F 23% 82.4°F > 1/2 mi
I 90 Montana State Line .1 Jul 24, 2021 01:34 pm Dry 129.9°F None None 5 mph 14 mph SE 28.4°F 13% 86.0°F > 1/2 mi
I 90 Pompey Creek 35.3 Jul 24, 2021 01:34 pm N/A   None None 1 mph   NE 42.8°F 12% 75.2°F > 1/2 mi
I 90 Sheridan/Johnson County Line 41.33 Jul 24, 2021 01:34 pm Trace Moisture 123.1°F None None 6 mph 14 mph SW 42.8°F 16% 73.4°F > 1/2 mi
I 90 Piney Creek Interchange 44.7 Jul 24, 2021 01:34 pm Dry 117.7°F None None 3 mph 9 mph S 30.2°F 12% 86.0°F > 1/2 mi
I 90 Kearny Divide 45.33 Jul 24, 2021 01:34 pm Dry   None None 9 mph 11 mph SE 39.2°F 12% 71.6°F > 1/2 mi
I 90 Indian Creek Road 83.3 Jul 24, 2021 01:34 pm Dry 129.7°F None None 6 mph 19 mph SE 30.2°F 13% 86.0°F > 1/2 mi
I 90 Dead Horse 91.5 Jul 24, 2021 01:34 pm Dry 127.9°F None None 2 mph 9 mph NW 48.2°F 21% 93.2°F > 1/2 mi
I 90 Mile Marker 108 108 Jul 24, 2021 01:34 pm N/A   None None 6 mph 15 mph NE 32.0°F 15% 86.0°F > 1/2 mi
I 90 Inyan Kara 170.5 Jul 24, 2021 01:34 pm Dry 124.2°F None   6 mph 8 mph NE 39.2°F 15% 91.4°F  
I 90 Beulah 205.9 Jul 24, 2021 01:34 pm Dry 104.7°F None None 6 mph 12 mph NE 44.6°F 23% 86.0°F > 1/2 mi
US 14 Ucross 27.83 Jul 24, 2021 01:34 pm Dry 127.8°F None None 2 mph 7 mph W 32.0°F 13% 87.8°F > 1/2 mi
US 14 Granite Pass 38.95 Jul 24, 2021 01:34 pm N/A   None None 11 mph 16 mph NE 32.0°F 25% 68.0°F > 1/2 mi
US 16 Big Horn County Line 44.01 Jul 24, 2021 01:34 pm Trace Moisture 121.5°F None None 6 mph 12 mph W 35.6°F 25% 73.4°F > 1/2 mi
US 191 Farson 40.45 Jul 24, 2021 01:34 pm Dry 129.9°F None None 9 mph 12 mph SW 32.0°F 14% 86.0°F > 1/2 mi
US 191 Warren Bridge 119.9 Jul 24, 2021 01:34 pm Dry 114.3°F None None 6 mph 13 mph SE 26.6°F 14% 78.8°F > 1/2 mi
US 20 Natrona 30 Jul 24, 2021 01:34 pm N/A   None None 4 mph 4 mph N 37.4°F 18% 84.2°F > 1/2 mi
US 20 Hiland 57.4 Jul 24, 2021 01:34 pm Dry 125.1°F None None 12 mph 17 mph E       > 1/2 mi
US 20 Van Tassell 57.85 Jul 24, 2021 01:34 pm Dry 109.4°F None None 5 mph 11 mph E 50.0°F 27% 86.0°F > 1/2 mi
US 26 Wind River Lake 26.05 Jul 24, 2021 01:34 pm Dry 109.2°F None None 7 mph 11 mph N 28.4°F 22% 69.8°F > 1/2 mi
US 287 Pumpkin Vine 420.4 Jul 24, 2021 01:34 pm N/A   None None 15 mph 25 mph S 75.2°F   73.4°F > 1/2 mi
US 30 Sage Junction 34 Jul 24, 2021 01:34 pm N/A   None None 7 mph 12 mph W 23.0°F 10% 86.0°F > 1/2 mi
US 30 Nugget Canyon 39.7 Jul 24, 2021 01:34 pm Dry 129.2°F None None 7 mph 13 mph N 26.6°F 12% 82.4°F > 1/2 mi
US 85 Gun Barrel 46.8 Jul 24, 2021 01:34 pm Dry 118.9°F None None 11 mph 17 mph S 42.8°F 22% 84.2°F > 1/2 mi
US 85 Four Corners 247.2 Jul 24, 2021 01:34 pm Dry 119.3°F None None 11 mph 14 mph W 46.4°F 29% 80.6°F > 1/2 mi
WY 120 Meeteetse 61.5 Jul 24, 2021 01:34 pm     None None 12 mph 17 mph N 44.6°F 25% 84.2°F > 1/2 mi
WY 210 Wildcat Trail 21.52 Jul 24, 2021 01:34 pm Dry 111.0°F None None 17 mph 21 mph SE 39.2°F 28% 75.2°F > 1/2 mi
WY 210 Hynds Lodge Road 24.55 Jul 24, 2021 01:34 pm N/A   None None 9 mph 18 mph SE 37.4°F 26% 75.2°F > 1/2 mi
WY 22 Teton Pass 11.2 Jul 24, 2021 01:34 pm Dry 117.5°F None None 3 mph 6 mph NE 41.0°F 30% 73.4°F > 1/2 mi
WY 220 Pathfinder Hill 80.1 Jul 24, 2021 01:34 pm Dry 130.1°F None None 2 mph 9 mph NW 39.2°F 19% 86.0°F > 1/2 mi
WY 230 Skyline 230 113.2 Jul 24, 2021 01:34 pm Dry 125.1°F None None 15 mph 25 mph E 32.0°F 20% 77.0°F > 1/2 mi
WY 258 Outer Drive 13.77 Jul 24, 2021 01:34 pm Dry 124.7°F None None 6 mph 12 mph E 46.4°F 26% 84.2°F > 1/2 mi
WY 28 New South Pass 41.4 Jul 24, 2021 01:34 pm Dry 122.0°F None None 8 mph 13 mph NE 32.0°F 19% 75.2°F > 1/2 mi
WY 28 Lower Red Canyon 59.71 Jul 24, 2021 01:34 pm Dry 120.2°F None None 9 mph 14 mph N 35.6°F 21% 78.8°F > 1/2 mi
WY 296 Chief Joseph 32.96 Jul 24, 2021 01:34 pm Wet 117.0°F None None 19 mph 21 mph SE 30.2°F 24% 68.0°F > 1/2 mi
WY 372 Shute Creek 34 Jul 24, 2021 01:34 pm Dry 132.1°F None None 5 mph 34 mph S 26.6°F 12% 84.2°F > 1/2 mi
WY 387 Pine Tree Junction 131.79 Jul 24, 2021 01:34 pm Dry   None None 6 mph 11 mph N 35.6°F 16% 87.8°F > 1/2 mi
WY 487 Shirley Rim 37 Jul 24, 2021 01:34 pm Dry 117.3°F None None 1 mph 1 mph W 37.4°F 21% 80.6°F > 1/2 mi
WY 59 Belle Fourche 87 Jul 24, 2021 01:34 pm Dry 120.4°F None   6 mph 9 mph E 42.8°F 17% 91.4°F  
WY 789 Beaver Rim 48.1 Jul 24, 2021 01:34 pm     None None 8 mph 13 mph NW 44.6°F 25% 82.4°F > 1/2 mi

Contact Us
Copyright 2021 Disclaimer Privacy Policy Media